LKMT/OSR METAR and TAF weather

Enter ICAO airport designator
Station Type Date Time Source
LKMT METAR 2019/06/17 06:30 UTC NOAA

LKMT 170630Z 02009KT CAVOK 19/14 Q1022 NOSIG


Station Type Date Time Source
LKMT Decoded METAR 2019/06/17 06:30 UTC NOAA

Ostrava / Mosnov, Czech Republic (LKMT) 49-41N 018-07E 256M
Jun 17, 2019 - 02:30 AM EDT / 2019.06.17 0630 UTC
Wind: from the NNE (020 degrees) at 10 MPH (9 KT):0
Visibility: greater than 7 mile(s):0
Temperature: 66 F (19 C)
Dew Point: 57 F (14 C)
Relative Humidity: 72%
Pressure (altimeter): 30.18 in. Hg (1022 hPa)
ob: LKMT 170630Z 02009KT CAVOK 19/14 Q1022 NOSIG
cycle: 6

Station Type Date Time Source
LKMT TAF 2019/06/17 06:06 UTC NOAA

TAF TAF LKMT 170500Z 1706/1812 36010KT CAVOK
TEMPO 1709/1717 03014G26KT

Example: see airport list